Terminal Aerodrome Forecast
Issued by NWS Wichita, KS

Home | Current Version | Previous Version | Graphics & Text | Print | Product List | Glossary On
Versions: 1 2 3 4 5 6 7 8 9 10 11 12 13 14 15 16
011
FTUS43 KICT 251727
TAFICT
TAF
KICT 251727Z 2518/2618 19009KT P6SM BKN035
     FM252000 24008KT P6SM BKN050
     FM252300 32011KT P6SM BKN080
     FM260000 34013KT P6SM VCSH BKN080
     FM260500 35015KT P6SM VCSH BKN020
     FM260900 34016G24KT P6SM VCSH OVC015
     FM261200 34017G26KT P6SM OVC020
     FM261500 34016G25KT P6SM BKN035=

USA.gov is the U.S. government's official web portal to all federal, state and local government web resources and services.